Time;durP1;ratioP1;P1;durP2;ratioP2;P2;SDS_P1;SDS_P2;PMS_P1;PMS_P2;Temp;Humidity;BMP_temperature;BMP_pressure;BME280_temperature;BME280_humidity;BME280_pressure;Samples;Min_cycle;Max_cycle;Signal;HPM_P1;HPM_P2
2021/04/18 00:01:10;;;;;;;18.27;7.43;;;;;;;13.45;47.09;101841.56;5136847;27;20480;-47
2021/04/18 00:03:37;;;;;;;13.17;5.60;;;;;;;13.75;46.75;101838.66;5137739;27;20479;-49
2021/04/18 00:06:05;;;;;;;11.40;5.03;;;;;;;13.51;47.55;101831.53;5137002;27;20503;-48
2021/04/18 00:08:32;;;;;;;14.47;6.17;;;;;;;13.70;47.84;101827.19;5138181;27;20459;-47
2021/04/18 00:10:59;;;;;;;16.50;5.43;;;;;;;13.75;47.17;101830.88;5136665;27;20468;-48
2021/04/18 00:13:25;;;;;;;16.60;6.30;;;;;;;13.97;46.75;101831.84;5141394;27;20560;-49
2021/04/18 00:15:52;;;;;;;19.43;8.47;;;;;;;13.63;47.21;101831.19;5157736;27;20771;-49
2021/04/18 00:18:19;;;;;;;16.93;6.60;;;;;;;13.81;47.34;101831.16;5141946;27;20565;-47
2021/04/18 00:20:45;;;;;;;15.13;5.87;;;;;;;13.37;47.77;101825.66;5136443;27;20546;-49
2021/04/18 00:23:12;;;;;;;13.97;6.07;;;;;;;13.62;47.60;101827.72;5137296;27;20492;-49
2021/04/18 00:25:39;;;;;;;15.00;6.30;;;;;;;13.88;46.87;101817.66;5136771;27;20456;-51
2021/04/18 00:28:06;;;;;;;17.07;6.50;;;;;;;14.11;46.69;101819.50;5137718;27;20490;-47
2021/04/18 00:30:32;;;;;;;13.30;5.60;;;;;;;13.64;47.48;101817.41;5136745;27;20455;-46
2021/04/18 00:33:00;;;;;;;20.30;6.47;;;;;;;13.98;47.08;101811.16;5136738;27;20501;-48
2021/04/18 00:35:26;;;;;;;19.20;7.67;;;;;;;13.82;46.92;101811.28;5136574;27;20466;-49
2021/04/18 00:37:53;;;;;;;15.80;5.57;;;;;;;13.72;47.43;101815.16;5137519;27;20457;-46
2021/04/18 00:40:22;;;;;;;19.17;6.00;;;;;;;13.97;46.47;101812.00;5137448;27;20552;-46
2021/04/18 00:42:49;;;;;;;13.77;5.67;;;;;;;13.76;47.21;101801.53;5136422;27;20548;-47
2021/04/18 00:45:17;;;;;;;16.73;8.40;;;;;;;14.09;46.46;101806.44;5137174;27;20784;-47
2021/04/18 00:47:47;;;;;;;17.07;7.17;;;;;;;13.95;47.22;101800.63;5136391;27;20541;-49
2021/04/18 00:50:16;;;;;;;19.10;9.37;;;;;;;13.86;46.79;101797.66;5137067;27;20464;-47
2021/04/18 00:52:48;;;;;;;14.50;6.33;;;;;;;13.76;46.99;101796.34;5136231;27;20483;-48
2021/04/18 00:55:16;;;;;;;13.50;5.47;;;;;;;13.64;48.63;101800.16;5136601;27;20494;-49
2021/04/18 00:57:42;;;;;;;12.30;5.73;;;;;;;13.45;47.69;101792.31;5138649;27;20534;-47
2021/04/18 01:00:11;;;;;;;16.00;5.37;;;;;;;13.55;47.85;101791.97;5137020;27;20668;-46
2021/04/18 01:02:37;;;;;;;11.07;5.20;;;;;;;13.01;48.67;101786.78;5135589;27;20474;-48
2021/04/18 01:05:06;;;;;;;11.37;5.90;;;;;;;13.34;48.23;101789.22;5136970;27;20474;-50
2021/04/18 01:07:33;;;;;;;12.00;5.27;;;;;;;13.35;48.11;101794.47;5135824;27;20477;-47
2021/04/18 01:10:00;;;;;;;28.10;12.80;;;;;;;13.94;47.34;101790.22;5136872;27;20773;-50
2021/04/18 01:12:27;;;;;;;10.43;5.57;;;;;;;13.50;47.57;101789.13;5135227;27;20569;-47
2021/04/18 01:14:53;;;;;;;14.47;6.33;;;;;;;13.60;47.47;101794.75;5136872;27;20452;-48
2021/04/18 01:17:21;;;;;;;13.97;5.77;;;;;;;13.16;48.37;101781.47;5135529;27;20476;-47
2021/04/18 01:19:47;;;;;;;22.90;7.93;;;;;;;13.57;47.77;101784.25;5136873;27;20454;-46
2021/04/18 01:22:15;;;;;;;14.83;7.10;;;;;;;13.76;47.03;101780.78;5137970;27;20499;-46
2021/04/18 01:24:41;;;;;;;16.23;6.33;;;;;;;13.52;47.86;101786.63;5136521;27;20464;-49
2021/04/18 01:27:10;;;;;;;15.57;7.10;;;;;;;13.74;47.98;101796.28;5135191;27;20781;-46
2021/04/18 01:29:37;;;;;;;16.00;7.07;;;;;;;13.68;47.54;101792.53;5136614;27;20459;-47
2021/04/18 01:32:05;;;;;;;10.27;5.00;;;;;;;13.35;47.83;101784.09;5134946;27;20937;-47
2021/04/18 01:34:31;;;;;;;12.90;6.07;;;;;;;13.52;47.83;101781.44;5136472;27;20461;-46
2021/04/18 01:36:59;;;;;;;17.07;7.70;;;;;;;13.90;47.18;101790.06;5134945;27;20483;-47
2021/04/18 01:39:26;;;;;;;13.40;5.90;;;;;;;13.85;47.42;101788.97;5136384;27;20458;-47
2021/04/18 01:41:53;;;;;;;11.23;5.53;;;;;;;13.68;47.87;101789.94;5135154;27;20448;-48
2021/04/18 01:44:20;;;;;;;12.20;5.67;;;;;;;13.85;47.43;101786.38;5136581;27;20453;-47
2021/04/18 01:46:47;;;;;;;18.27;6.60;;;;;;;13.59;47.66;101793.00;5135570;27;20594;-48
2021/04/18 01:49:13;;;;;;;15.00;7.03;;;;;;;13.19;48.68;101784.22;5136450;27;20450;-48
2021/04/18 01:51:40;;;;;;;17.93;7.43;;;;;;;13.38;47.99;101780.75;5134789;27;20493;-49
2021/04/18 01:54:07;;;;;;;20.87;6.43;;;;;;;13.47;48.04;101788.13;5136222;27;20467;-48
2021/04/18 01:56:34;;;;;;;19.93;5.80;;;;;;;13.83;47.15;101785.44;5132369;27;20478;-48
2021/04/18 01:59:01;;;;;;;12.13;5.60;;;;;;;13.50;47.96;101789.13;5136109;27;20556;-46
2021/04/18 02:01:28;;;;;;;15.73;6.00;;;;;;;13.46;47.90;101779.47;5134843;27;20456;-46
2021/04/18 02:03:54;;;;;;;15.87;5.50;;;;;;;13.29;47.99;101782.94;5135996;27;20476;-47
2021/04/18 02:06:22;;;;;;;17.37;5.10;;;;;;;12.67;49.26;101778.28;5135142;27;20946;-46
2021/04/18 02:08:49;;;;;;;15.43;6.00;;;;;;;13.02;48.74;101779.09;5139502;27;20477;-50
2021/04/18 02:11:15;;;;;;;12.13;5.80;;;;;;;13.16;48.41;101776.28;5139117;27;20447;-47
2021/04/18 02:13:42;;;;;;;15.80;5.73;;;;;;;13.53;47.72;101775.44;5140050;27;20491;-47
2021/04/18 02:16:10;;;;;;;16.87;6.30;;;;;;;13.47;47.59;101772.56;5138936;27;20828;-46
2021/04/18 02:18:37;;;;;;;18.97;7.50;;;;;;;13.43;47.42;101775.81;5140128;27;20433;-49
2021/04/18 02:21:03;;;;;;;15.20;6.17;;;;;;;12.99;48.39;101766.00;5138457;27;20448;-47
2021/04/18 02:23:30;;;;;;;14.20;5.50;;;;;;;12.85;48.73;101775.69;5139998;27;20479;-46
2021/04/18 02:25:56;;;;;;;88.53;36.47;;;;;;;12.66;49.73;101764.44;5138754;27;20471;-48
2021/04/18 02:28:23;;;;;;;176.10;73.83;;;;;;;12.74;49.71;101770.00;5140038;27;20458;-48
2021/04/18 02:30:51;;;;;;;56.63;24.03;;;;;;;12.95;49.30;101771.84;5138708;27;20474;-47
2021/04/18 02:33:17;;;;;;;85.63;38.07;;;;;;;13.02;49.44;101763.56;5139669;27;20484;-48
2021/04/18 02:35:44;;;;;;;49.57;20.87;;;;;;;13.02;49.09;101763.56;5138935;27;20543;-48
2021/04/18 02:38:10;;;;;;;35.10;15.80;;;;;;;13.08;48.29;101758.66;5139938;27;20459;-46
2021/04/18 02:40:37;;;;;;;26.80;11.63;;;;;;;13.16;47.94;101765.91;5138864;27;20467;-47
2021/04/18 02:43:03;;;;;;;18.27;8.20;;;;;;;12.63;48.74;101764.31;5139030;27;20469;-47
2021/04/18 02:45:30;;;;;;;23.00;7.73;;;;;;;12.61;49.25;101765.03;5138650;27;20437;-48
2021/04/18 02:47:58;;;;;;;22.20;6.63;;;;;;;12.61;48.72;101759.84;5139727;27;20458;-47
2021/04/18 02:50:24;;;;;;;14.20;5.87;;;;;;;12.37;49.05;101766.44;5138427;27;20891;-47
2021/04/18 02:52:51;;;;;;;11.83;5.23;;;;;;;12.62;48.92;101759.03;5139048;27;20496;-49
2021/04/18 02:55:17;;;;;;;13.47;5.60;;;;;;;12.80;51.67;101762.53;5142540;27;20842;-48
2021/04/18 02:57:44;;;;;;;14.10;5.87;;;;;;;12.55;48.56;101756.16;5159435;27;20615;-50
2021/04/18 03:00:12;;;;;;;11.50;5.33;;;;;;;12.68;48.26;101767.13;5160066;27;20454;-47
2021/04/18 03:02:38;;;;;;;9.60;4.23;;;;;;;12.61;48.33;101759.84;5158618;27;20477;-46
2021/04/18 03:05:08;;;;;;;19.40;4.93;;;;;;;12.61;48.09;101759.84;5159956;27;20503;-47
2021/04/18 03:07:34;;;;;;;10.70;4.83;;;;;;;11.73;50.05;101765.78;5159178;27;20913;-48
2021/04/18 03:10:01;;;;;;;13.90;4.63;;;;;;;12.07;48.97;101766.69;5160055;27;20744;-47
2021/04/18 03:12:28;;;;;;;12.13;4.90;;;;;;;12.09;49.36;101762.47;5158409;27;20484;-49
2021/04/18 03:14:54;;;;;;;14.70;5.43;;;;;;;12.40;48.17;101760.53;5159774;27;20743;-47
2021/04/18 03:17:21;;;;;;;16.73;6.90;;;;;;;12.28;48.50;101756.56;5158621;27;20503;-49
2021/04/18 03:19:48;;;;;;;23.73;9.60;;;;;;;12.39;48.66;101756.19;5159486;27;20890;-46
2021/04/18 03:22:15;;;;;;;18.43;8.00;;;;;;;12.31;48.46;101755.78;5158326;27;20482;-47
2021/04/18 03:24:42;;;;;;;19.70;8.30;;;;;;;12.66;48.74;101754.09;5159772;27;20455;-46
2021/04/18 03:27:09;;;;;;;25.07;11.53;;;;;;;12.21;48.50;101754.44;5158360;27;20524;-49
2021/04/18 03:29:35;;;;;;;14.00;5.80;;;;;;;11.84;49.46;101752.53;5156297;27;20738;-47
2021/04/18 03:32:02;;;;;;;17.53;7.30;;;;;;;11.78;49.31;101747.03;5158138;27;20454;-46
2021/04/18 03:34:29;;;;;;;24.60;9.47;;;;;;;12.17;48.58;101747.34;5159569;27;20545;-47
2021/04/18 03:36:55;;;;;;;18.10;8.03;;;;;;;12.28;48.72;101746.19;5158379;27;20558;-47
2021/04/18 03:39:23;;;;;;;16.73;6.10;;;;;;;11.97;48.32;101749.78;5159302;27;20529;-48
2021/04/18 03:41:49;;;;;;;12.70;6.47;;;;;;;11.87;49.02;101753.56;5157785;27;20567;-46
2021/04/18 03:44:16;;;;;;;15.50;6.57;;;;;;;11.81;49.02;101757.53;5159476;27;20505;-46
2021/04/18 03:46:43;;;;;;;17.77;5.50;;;;;;;11.67;49.49;101749.94;5158330;27;20446;-46
2021/04/18 03:49:09;;;;;;;13.40;5.67;;;;;;;11.91;49.30;101754.63;5158962;27;20458;-47
2021/04/18 03:51:46;;;;;;;15.40;6.90;;;;;;;12.09;48.22;101754.72;5157632;27;20775;-48
2021/04/18 03:54:13;;;;;;;20.07;6.80;;;;;;;11.63;49.80;101757.44;5158868;27;20451;-49
2021/04/18 03:56:40;;;;;;;18.53;7.40;;;;;;;11.75;49.16;101756.38;5158013;27;20536;-47
2021/04/18 03:59:07;;;;;;;11.30;4.50;;;;;;;11.40;49.50;101752.81;5159002;27;20443;-48
2021/04/18 04:01:34;;;;;;;14.93;5.20;;;;;;;11.51;49.06;101747.31;5157283;27;20554;-47
2021/04/18 04:04:01;;;;;;;12.00;4.53;;;;;;;11.38;48.96;101745.78;5159046;27;20433;-49
2021/04/18 04:06:28;;;;;;;23.93;5.60;;;;;;;11.68;48.63;101751.72;5157879;27;20503;-48
2021/04/18 04:08:55;;;;;;;14.63;5.10;;;;;;;11.61;49.20;101755.69;5158439;27;20504;-47
2021/04/18 04:11:22;;;;;;;11.90;6.10;;;;;;;11.86;48.74;101753.50;5157504;27;20450;-47
2021/04/18 04:13:49;;;;;;;10.67;3.90;;;;;;;11.85;48.45;101750.00;5158569;27;20468;-47
2021/04/18 04:16:16;;;;;;;16.03;7.00;;;;;;;11.95;48.89;101756.53;5157569;27;20948;-50
2021/04/18 04:18:42;;;;;;;10.60;4.90;;;;;;;12.15;47.50;101754.13;5158599;27;20459;-49
2021/04/18 04:21:09;;;;;;;9.57;4.03;;;;;;;11.86;47.66;101761.25;5157036;27;20485;-47
2021/04/18 04:23:37;;;;;;;12.10;5.43;;;;;;;11.78;48.16;101767.72;5158204;27;20533;-46
2021/04/18 04:26:04;;;;;;;8.90;3.70;;;;;;;11.68;48.46;101764.63;5157276;27;20467;-47
2021/04/18 04:28:31;;;;;;;13.90;4.80;;;;;;;11.50;48.82;101753.31;5158502;27;20475;-47
2021/04/18 04:30:59;;;;;;;14.60;4.13;;;;;;;11.39;48.85;101755.31;5156371;27;20445;-49
2021/04/18 04:33:26;;;;;;;24.20;7.33;;;;;;;11.68;48.57;101761.16;5158198;27;20491;-46
2021/04/18 04:35:53;;;;;;;14.10;6.00;;;;;;;11.74;48.56;101767.53;5157048;27;20495;-47
2021/04/18 04:38:19;;;;;;;12.40;5.17;;;;;;;11.37;49.28;101760.38;5158194;27;20458;-47
2021/04/18 04:40:46;;;;;;;14.03;4.73;;;;;;;11.72;48.87;101760.50;5157307;27;20442;-46
2021/04/18 04:43:12;;;;;;;11.93;5.17;;;;;;;11.36;49.99;101766.38;5157816;27;20446;-47
2021/04/18 04:45:39;;;;;;;12.60;5.23;;;;;;;11.32;49.75;101761.81;5157057;27;20432;-51
2021/04/18 04:48:07;;;;;;;11.47;3.97;;;;;;;11.17;50.23;101762.78;5158061;27;20894;-48
2021/04/18 04:50:34;;;;;;;13.30;4.53;;;;;;;11.61;48.79;101765.13;5156991;27;20455;-47
2021/04/18 04:53:00;;;;;;;11.03;5.00;;;;;;;11.48;49.33;101763.56;5157143;27;21036;-48
2021/04/18 04:55:27;;;;;;;15.40;5.20;;;;;;;11.53;49.24;101767.28;5156786;27;20440;-48
2021/04/18 04:57:53;;;;;;;20.23;5.80;;;;;;;11.67;49.01;101764.53;5157837;27;20465;-51
2021/04/18 05:00:21;;;;;;;15.77;5.00;;;;;;;11.90;48.81;101768.38;5157903;27;20433;-48
2021/04/18 05:02:48;;;;;;;10.53;4.23;;;;;;;11.29;49.75;101777.19;5156874;27;20475;-46
2021/04/18 05:05:16;;;;;;;20.30;5.50;;;;;;;11.74;48.83;101769.22;5153960;27;20553;-46
2021/04/18 05:07:42;;;;;;;11.83;5.50;;;;;;;11.74;49.24;101776.97;5156569;27;20463;-47
2021/04/18 05:10:10;;;;;;;26.47;5.57;;;;;;;11.83;48.97;101768.81;5157262;27;20749;-48
2021/04/18 05:12:37;;;;;;;15.83;7.50;;;;;;;12.08;48.20;101767.56;5156049;27;20458;-47
2021/04/18 05:15:04;;;;;;;11.67;4.50;;;;;;;12.09;48.53;101774.50;5157427;27;20430;-47
2021/04/18 05:17:31;;;;;;;18.73;6.27;;;;;;;12.15;48.87;101783.47;5156415;27;20804;-47
2021/04/18 05:19:58;;;;;;;20.10;5.33;;;;;;;11.89;48.80;101787.25;5157737;27;20422;-47
2021/04/18 05:22:25;;;;;;;13.83;4.00;;;;;;;11.58;49.87;101795.94;5152539;27;20482;-46
2021/04/18 05:24:52;;;;;;;17.43;5.03;;;;;;;11.92;48.98;101795.19;5157441;27;20430;-47
2021/04/18 05:27:21;;;;;;;13.83;5.30;;;;;;;11.67;49.60;101796.47;5156300;27;20484;-50
2021/04/18 05:29:47;;;;;;;13.10;4.87;;;;;;;11.72;49.26;101789.84;5157492;27;20456;-49
2021/04/18 05:32:14;;;;;;;10.80;4.80;;;;;;;11.99;49.00;101792.13;5155769;27;20762;-46
2021/04/18 05:34:41;;;;;;;12.60;5.80;;;;;;;11.87;49.08;101789.78;5157326;27;20475;-47
2021/04/18 05:37:07;;;;;;;16.33;4.77;;;;;;;12.12;48.59;101787.63;5156221;27;20759;-48
2021/04/18 05:39:36;;;;;;;15.87;5.20;;;;;;;12.32;48.63;101787.75;5157255;27;20430;-47
2021/04/18 05:42:03;;;;;;;15.43;5.17;;;;;;;12.59;47.50;101785.66;5155513;27;20490;-49
2021/04/18 05:44:30;;;;;;;21.27;5.33;;;;;;;12.59;47.72;101795.13;5157178;27;20456;-47
2021/04/18 05:46:56;;;;;;;10.60;4.83;;;;;;;12.59;47.85;101795.13;5155754;27;20536;-48
2021/04/18 05:49:23;;;;;;;21.87;6.87;;;;;;;12.68;47.79;101793.00;5156968;27;20455;-48
2021/04/18 05:51:49;;;;;;;10.50;4.03;;;;;;;12.91;47.22;101790.63;5155415;27;20459;-47
2021/04/18 05:54:16;;;;;;;12.73;4.57;;;;;;;12.65;47.80;101787.66;5156784;27;20903;-47
2021/04/18 05:56:43;;;;;;;9.03;4.97;;;;;;;12.62;47.85;101795.28;5156015;27;20488;-48
2021/04/18 05:59:10;;;;;;;17.20;4.47;;;;;;;12.29;48.66;101791.06;5156816;27;20458;-46
2021/04/18 06:01:36;;;;;;;16.10;5.77;;;;;;;12.72;48.28;101784.56;5155540;27;20479;-47
2021/04/18 06:04:04;;;;;;;23.87;6.17;;;;;;;12.55;48.88;101791.50;5157155;27;20450;-49
2021/04/18 06:06:31;;;;;;;16.13;5.77;;;;;;;12.72;48.33;101792.31;5156038;27;20562;-48
2021/04/18 06:08:58;;;;;;;16.67;6.67;;;;;;;12.61;48.93;101786.63;5156907;27;20452;-50
2021/04/18 06:11:25;;;;;;;19.33;7.90;;;;;;;13.03;47.94;101791.22;5155629;27;20561;-46
2021/04/18 06:13:52;;;;;;;15.60;5.70;;;;;;;13.01;47.90;101790.28;5156696;27;20487;-47
2021/04/18 06:16:19;;;;;;;12.50;5.63;;;;;;;12.72;48.09;101789.72;5155863;27;20471;-47
2021/04/18 06:18:46;;;;;;;11.10;4.40;;;;;;;12.86;48.42;101789.56;5156874;27;20459;-48
2021/04/18 06:21:12;;;;;;;19.10;5.20;;;;;;;12.97;48.48;101785.75;5155351;27;20475;-47
2021/04/18 06:23:39;;;;;;;20.70;6.70;;;;;;;13.34;48.24;101781.47;5156390;27;20471;-49
2021/04/18 06:26:06;;;;;;;12.93;4.40;;;;;;;12.57;49.30;101782.13;5155733;27;20508;-47
2021/04/18 06:28:33;;;;;;;15.80;7.03;;;;;;;13.28;48.21;101771.66;5156389;27;20963;-49
2021/04/18 06:31:01;;;;;;;16.20;5.87;;;;;;;13.05;48.30;101773.19;5155134;27;20498;-47
2021/04/18 06:33:27;;;;;;;14.37;5.63;;;;;;;13.29;47.36;101778.66;5156311;27;20570;-47
2021/04/18 06:35:54;;;;;;;13.63;5.30;;;;;;;13.58;46.91;101781.72;5155539;27;20475;-48
2021/04/18 06:38:21;;;;;;;16.87;5.60;;;;;;;13.36;47.45;101785.91;5156498;27;20993;-48
2021/04/18 06:40:51;;;;;;;13.87;5.73;;;;;;;13.53;48.06;101777.16;5155486;27;20520;-46
2021/04/18 06:43:20;;;;;;;17.90;5.93;;;;;;;13.16;48.60;101782.34;5156004;27;20472;-48
2021/04/18 06:45:49;;;;;;;14.10;5.80;;;;;;;13.39;47.63;101784.25;5155691;27;20833;-47
2021/04/18 06:48:32;;;;;;;13.50;5.07;;;;;;;13.62;46.88;101782.75;5156506;27;20456;-48
2021/04/18 06:50:59;;;;;;;17.47;6.70;;;;;;;13.71;46.76;101787.47;5155183;27;20503;-47
2021/04/18 06:53:26;;;;;;;12.90;5.60;;;;;;;13.53;47.52;101787.53;5156458;27;20475;-47
2021/04/18 06:55:53;;;;;;;13.33;5.30;;;;;;;13.28;48.04;101775.97;5155971;27;20460;-46
2021/04/18 06:58:19;;;;;;;15.50;5.37;;;;;;;13.60;47.47;101782.66;5160259;27;20463;-47
2021/04/18 07:00:46;;;;;;;15.00;4.13;;;;;;;13.30;47.78;101780.44;5158980;27;20471;-47
2021/04/18 07:03:14;;;;;;;11.70;5.30;;;;;;;13.80;46.84;101782.72;5159577;27;20787;-46
2021/04/18 07:05:44;;;;;;;16.10;6.17;;;;;;;13.62;46.96;101778.47;5159032;27;20468;-49
2021/04/18 07:08:24;;;;;;;12.43;4.77;;;;;;;12.83;48.92;101787.69;5159778;27;20453;-48
2021/04/18 07:10:52;;;;;;;13.60;5.30;;;;;;;14.04;46.43;101787.19;5158941;27;20468;-48
2021/04/18 07:13:19;;;;;;;13.20;4.37;;;;;;;13.20;48.26;101788.56;5159112;27;20939;-47
2021/04/18 07:15:48;;;;;;;9.87;4.73;;;;;;;13.76;47.07;101786.84;5158797;27;20507;-46
2021/04/18 07:18:38;;;;;;;10.40;5.03;;;;;;;14.04;46.95;101789.78;5159682;27;20471;-48
2021/04/18 07:21:06;;;;;;;12.27;4.70;;;;;;;14.15;46.57;101785.97;5158300;27;20484;-48
2021/04/18 07:23:34;;;;;;;17.13;4.57;;;;;;;14.03;47.01;101777.63;5159386;27;20479;-48
2021/04/18 07:26:23;;;;;;;10.40;4.47;;;;;;;14.40;46.69;101775.72;5155220;27;20469;-47
2021/04/18 07:28:51;;;;;;;19.13;6.67;;;;;;;14.88;45.51;101774.25;5159819;27;20457;-49
2021/04/18 07:31:32;;;;;;;11.07;4.63;;;;;;;14.55;46.34;101778.09;5158535;27;20478;-46
2021/04/18 07:34:00;;;;;;;16.47;6.73;;;;;;;15.05;46.03;101787.91;5159693;27;20477;-48
2021/04/18 07:36:28;;;;;;;13.03;6.20;;;;;;;14.92;45.29;101777.03;5158399;27;20471;-47
2021/04/18 07:38:54;;;;;;;13.90;5.37;;;;;;;14.92;45.41;101777.03;5159145;27;20458;-50
2021/04/18 07:41:22;;;;;;;10.67;5.30;;;;;;;14.55;47.09;101767.69;5145282;27;20975;-47
2021/04/18 07:43:49;;;;;;;10.43;4.87;;;;;;;14.74;46.12;101771.06;5138018;27;20474;-47
2021/04/18 07:46:16;;;;;;;15.70;5.33;;;;;;;14.50;47.09;101767.50;5137034;27;20464;-46
2021/04/18 07:48:44;;;;;;;16.93;6.17;;;;;;;14.40;47.03;101771.44;5137953;27;20454;-47
2021/04/18 07:51:10;;;;;;;17.70;5.70;;;;;;;14.83;45.95;101766.28;5137179;27;20495;-46
2021/04/18 07:53:40;;;;;;;14.00;5.67;;;;;;;15.06;46.67;101774.09;5137691;27;20483;-47
2021/04/18 07:56:08;;;;;;;16.23;6.00;;;;;;;14.83;46.30;101771.47;5137334;27;20817;-47
2021/04/18 07:58:37;;;;;;;14.77;5.10;;;;;;;14.96;45.81;101768.53;5138425;27;20554;-49
2021/04/18 08:01:04;;;;;;;14.40;5.57;;;;;;;15.36;44.89;101773.50;5136803;27;20433;-51
2021/04/18 08:03:31;;;;;;;14.90;5.20;;;;;;;15.16;45.53;101771.03;5149122;27;20768;-49
2021/04/18 08:05:58;;;;;;;18.17;4.97;;;;;;;14.86;46.19;101771.59;5135597;27;20463;-47
2021/04/18 08:08:25;;;;;;;14.20;4.70;;;;;;;14.64;46.76;101764.59;5137835;27;20559;-48
2021/04/18 08:10:53;;;;;;;18.57;6.57;;;;;;;14.63;47.15;101762.81;5145748;27;20466;-47
2021/04/18 08:13:22;;;;;;;14.90;5.30;;;;;;;15.08;46.62;101767.25;5158184;27;20490;-47
2021/04/18 08:16:04;;;;;;;13.00;5.70;;;;;;;15.14;45.68;101764.91;5157695;27;20486;-49
2021/04/18 08:18:32;;;;;;;12.83;4.80;;;;;;;14.96;46.44;101760.75;5157296;27;20759;-47
2021/04/18 08:21:01;;;;;;;17.70;5.40;;;;;;;15.83;44.62;101770.03;5136485;27;20558;-49
2021/04/18 08:23:38;;;;;;;19.77;7.60;;;;;;;15.44;45.72;101766.00;5137419;27;20766;-46
2021/04/18 08:26:11;;;;;;;15.43;7.70;;;;;;;16.17;44.53;101771.25;5137059;27;20482;-49
2021/04/18 08:29:09;;;;;;;15.33;6.17;;;;;;;16.02;44.58;101759.47;5137340;27;20448;-49
2021/04/18 08:31:56;;;;;;;13.63;6.27;;;;;;;15.96;45.43;101748.84;5136010;27;20918;-46
2021/04/18 08:34:25;;;;;;;15.93;5.70;;;;;;;16.33;44.69;101757.94;5137223;27;20476;-46
2021/04/18 08:36:53;;;;;;;16.07;6.67;;;;;;;16.16;45.31;101748.66;5148567;27;20562;-47
2021/04/18 08:39:26;;;;;;;37.13;16.33;;;;;;;16.41;44.25;101750.38;5157916;27;20537;-47
2021/04/18 08:41:55;;;;;;;12.80;5.27;;;;;;;16.49;44.31;101747.13;5157118;27;20467;-48
2021/04/18 08:44:24;;;;;;;11.37;5.77;;;;;;;16.51;44.16;101743.75;5158194;27;20449;-46
2021/04/18 08:46:53;;;;;;;19.70;6.70;;;;;;;16.08;45.24;101755.28;5156742;27;20918;-46
2021/04/18 08:49:32;;;;;;;15.97;6.03;;;;;;;16.54;44.95;101751.66;5157589;27;20899;-46
2021/04/18 08:52:00;;;;;;;17.30;6.53;;;;;;;16.62;43.98;101758.84;5156378;27;20868;-50
2021/04/18 08:54:29;;;;;;;14.97;5.97;;;;;;;16.93;43.22;101757.22;5157612;27;20514;-48
2021/04/18 08:56:59;;;;;;;15.00;5.90;;;;;;;17.17;43.10;101764.94;5157213;27;20562;-47
2021/04/18 08:59:26;;;;;;;16.10;6.00;;;;;;;17.67;42.38;101769.91;5154140;27;20546;-46
2021/04/18 09:01:59;;;;;;;16.60;6.53;;;;;;;16.82;43.83;101778.59;5156230;27;20570;-49
2021/04/18 09:04:27;;;;;;;13.57;7.23;;;;;;;17.18;43.11;101774.53;5157430;27;20462;-46
2021/04/18 09:06:54;;;;;;;16.43;6.70;;;;;;;16.68;44.27;101779.88;5156533;27;20481;-48
2021/04/18 09:09:21;;;;;;;15.37;7.00;;;;;;;17.07;43.58;101779.41;5157179;27;20535;-50
2021/04/18 09:11:48;;;;;;;14.97;6.50;;;;;;;16.53;43.88;101781.16;5137180;27;20456;-47
2021/04/18 09:14:23;;;;;;;20.50;6.23;;;;;;;16.78;43.83;101776.75;5136822;27;20484;-47
2021/04/18 09:16:50;;;;;;;17.30;7.60;;;;;;;16.92;43.61;101769.34;5135412;27;20480;-47
2021/04/18 09:19:22;;;;;;;14.30;6.47;;;;;;;16.94;43.53;101782.44;5136434;27;20456;-48
2021/04/18 09:22:00;;;;;;;9.00;5.37;;;;;;;17.76;42.59;101784.03;5135129;27;20561;-49
2021/04/18 09:24:28;;;;;;;10.70;5.90;;;;;;;17.53;42.85;101781.63;5136582;27;20538;-46
2021/04/18 09:26:56;;;;;;;14.10;5.93;;;;;;;17.11;43.27;101768.25;5135910;27;20467;-49
2021/04/18 09:29:26;;;;;;;13.03;5.90;;;;;;;16.86;43.25;101759.63;5136394;27;20452;-50
2021/04/18 09:31:58;;;;;;;14.00;7.10;;;;;;;16.80;43.23;101753.34;5137678;27;22915;-53
2021/04/18 09:34:25;;;;;;;12.90;6.30;;;;;;;17.77;41.74;101758.00;5136567;27;20472;-50
2021/04/18 09:36:53;;;;;;;11.97;5.97;;;;;;;18.23;40.98;101752.25;5135608;27;20842;-52
2021/04/18 09:39:20;;;;;;;17.30;5.90;;;;;;;17.07;42.61;101762.91;5136435;27;20535;-53
2021/04/18 09:41:47;;;;;;;12.03;6.30;;;;;;;17.22;42.46;101754.69;5135377;27;20575;-52
2021/04/18 09:44:27;;;;;;;11.63;6.33;;;;;;;17.31;42.24;101762.75;5136478;27;20835;-51
2021/04/18 09:47:05;;;;;;;14.93;6.53;;;;;;;18.06;41.41;101762.28;5135669;27;20478;-54
2021/04/18 09:49:52;;;;;;;19.90;6.57;;;;;;;18.42;40.28;101757.97;5136235;27;20898;-50
2021/04/18 09:52:30;;;;;;;13.77;6.10;;;;;;;18.90;39.42;101756.50;5134407;27;20467;-53
2021/04/18 09:55:18;;;;;;;13.90;5.80;;;;;;;18.46;40.18;101755.44;5135536;27;20852;-51
2021/04/18 09:57:50;;;;;;;16.80;6.80;;;;;;;18.82;39.83;101753.69;5133061;27;20844;-52
2021/04/18 10:00:25;;;;;;;11.90;6.20;;;;;;;18.79;39.90;101757.97;5135782;28;20463;-51
2021/04/18 10:03:13;;;;;;;16.00;6.40;;;;;;;19.16;39.40;101748.38;5134799;27;20539;-47
2021/04/18 10:05:58;;;;;;;10.13;6.17;;;;;;;18.77;39.82;101744.88;5132475;27;20456;-52
2021/04/18 10:08:27;;;;;;;13.80;6.10;;;;;;;18.33;40.41;101758.59;5133896;28;20452;-54
2021/04/18 10:10:55;;;;;;;13.10;6.23;;;;;;;18.15;40.90;101749.44;5137369;27;20482;-52
2021/04/18 10:13:36;;;;;;;13.27;6.20;;;;;;;18.51;40.26;101759.91;5132955;28;20482;-53
2021/04/18 10:16:19;;;;;;;18.60;6.43;;;;;;;18.73;39.74;101758.72;5134616;27;20474;-49
2021/04/18 10:19:08;;;;;;;13.20;6.50;;;;;;;19.44;38.52;101756.81;5135701;28;20445;-52
2021/04/18 10:21:35;;;;;;;12.10;6.00;;;;;;;19.58;37.62;101761.47;5134587;27;20481;-52
2021/04/18 10:24:02;;;;;;;13.63;6.30;;;;;;;19.70;38.09;101756.47;5136027;28;20929;-52
2021/04/18 10:26:31;;;;;;;14.47;6.87;;;;;;;19.48;38.29;101758.63;5135219;27;20483;-54
2021/04/18 10:28:58;;;;;;;12.60;7.20;;;;;;;19.14;38.50;101755.31;5137787;27;20739;-54
2021/04/18 10:31:29;;;;;;;14.07;5.90;;;;;;;20.05;37.65;101752.78;5138869;27;20569;-49
2021/04/18 10:33:55;;;;;;;11.93;5.90;;;;;;;19.48;38.13;101749.91;5138268;27;20513;-48
2021/04/18 10:36:22;;;;;;;13.57;6.20;;;;;;;19.53;38.29;101751.78;5138446;27;20839;-48
2021/04/18 10:38:49;;;;;;;13.73;5.60;;;;;;;18.88;38.83;101745.13;5139809;27;20482;-47
2021/04/18 10:41:16;;;;;;;14.13;7.30;;;;;;;18.89;39.07;101741.66;5139097;27;20492;-47
2021/04/18 10:43:42;;;;;;;15.00;6.83;;;;;;;19.83;38.08;101742.75;5139347;27;20508;-50
2021/04/18 10:46:09;;;;;;;12.43;5.70;;;;;;;19.05;39.03;101742.00;5138478;27;20472;-48
2021/04/18 10:48:36;;;;;;;12.33;6.57;;;;;;;19.75;37.69;101739.13;5139663;27;20465;-48
2021/04/18 10:51:04;;;;;;;14.90;6.10;;;;;;;19.21;39.11;101736.28;5138054;27;20486;-47
2021/04/18 10:53:30;;;;;;;12.13;6.70;;;;;;;19.60;38.76;101737.09;5138968;27;20575;-47
2021/04/18 10:55:57;;;;;;;13.73;6.13;;;;;;;19.35;38.80;101743.53;5138950;27;20952;-47
2021/04/18 10:58:24;;;;;;;14.80;6.90;;;;;;;19.06;39.43;101733.34;5139493;27;20458;-47
2021/04/18 11:00:51;;;;;;;12.13;6.03;;;;;;;20.46;37.62;101722.91;5138444;27;20466;-49
2021/04/18 11:03:17;;;;;;;13.90;6.60;;;;;;;20.07;38.45;101712.69;5140782;27;20519;-49
2021/04/18 11:05:45;;;;;;;17.97;8.10;;;;;;;20.46;36.99;101717.66;5134823;27;20475;-50
2021/04/18 11:08:13;;;;;;;17.10;8.60;;;;;;;20.22;37.35;101711.16;5139173;27;20542;-51
2021/04/18 11:10:39;;;;;;;14.27;7.80;;;;;;;20.73;36.45;101705.84;5138221;27;20459;-49
2021/04/18 11:13:06;;;;;;;14.37;6.30;;;;;;;20.70;36.39;101706.66;5138473;27;20574;-49
2021/04/18 11:15:33;;;;;;;13.17;6.93;;;;;;;20.86;36.34;101702.56;5137771;27;20889;-49
2021/04/18 11:17:59;;;;;;;12.50;7.50;;;;;;;20.33;37.79;101704.38;5138170;27;20954;-49
2021/04/18 11:20:26;;;;;;;14.00;7.20;;;;;;;20.27;37.31;101709.50;5137685;27;20471;-49
2021/04/18 11:22:54;;;;;;;16.40;8.10;;;;;;;20.61;37.41;101701.31;5138008;27;20952;-49